createdAt,value
2017-08-07T00:01:00.297Z,4.53
2017-08-07T00:03:27.940Z,4.70
2017-08-07T00:05:55.642Z,4.80
2017-08-07T00:08:23.285Z,4.70
2017-08-07T00:10:50.961Z,4.20
2017-08-07T00:13:18.611Z,4.30
2017-08-07T00:15:46.270Z,4.85
2017-08-07T00:18:13.891Z,4.80
2017-08-07T00:20:41.540Z,5.15
2017-08-07T00:23:09.011Z,5.07
2017-08-07T00:25:36.684Z,5.10
2017-08-07T00:28:04.298Z,4.57
2017-08-07T00:30:31.955Z,4.72
2017-08-07T00:32:59.593Z,4.65
2017-08-07T00:35:27.231Z,4.00
2017-08-07T00:37:54.882Z,4.00
2017-08-07T00:40:22.492Z,4.12
2017-08-07T00:42:50.151Z,4.45
2017-08-07T00:45:17.790Z,3.55
2017-08-07T00:47:45.451Z,3.42
2017-08-07T00:50:14.067Z,3.47
2017-08-07T00:52:41.701Z,4.10
2017-08-07T00:55:09.342Z,4.18
2017-08-07T00:57:36.970Z,4.35
2017-08-07T01:00:04.627Z,4.82
2017-08-07T01:02:32.280Z,3.95
2017-08-07T01:05:08.145Z,4.32
2017-08-07T01:07:36.722Z,4.80
2017-08-07T01:10:05.272Z,4.90
2017-08-07T01:12:32.905Z,5.20
2017-08-07T01:15:00.520Z,6.00
2017-08-07T01:17:29.076Z,5.00
2017-08-07T01:19:56.677Z,4.65
2017-08-07T01:22:24.286Z,4.45
2017-08-07T01:24:51.938Z,4.85
2017-08-07T01:27:19.541Z,5.00
2017-08-07T01:29:47.131Z,4.57
2017-08-07T01:32:14.734Z,4.60
2017-08-07T01:34:42.332Z,5.43
2017-08-07T01:37:09.983Z,5.07
2017-08-07T01:39:37.576Z,4.47
2017-08-07T01:42:05.175Z,4.75
2017-08-07T01:44:32.772Z,4.50
2017-08-07T01:47:00.375Z,4.45
2017-08-07T01:49:28.980Z,4.60
2017-08-07T01:51:56.589Z,4.35
2017-08-07T01:54:24.201Z,3.87
2017-08-07T01:56:51.830Z,3.87
2017-08-07T01:59:19.434Z,5.28
2017-08-07T02:01:47.080Z,4.50
2017-08-07T02:04:15.737Z,4.62
2017-08-07T02:06:43.361Z,4.25
2017-08-07T02:09:10.968Z,4.47
2017-08-07T02:11:38.577Z,4.70
2017-08-07T02:14:06.243Z,4.03
2017-08-07T02:16:33.845Z,4.05
2017-08-07T02:19:01.433Z,4.32
2017-08-07T02:21:29.046Z,4.40
2017-08-07T02:23:56.657Z,4.50
2017-08-07T02:26:24.313Z,4.50
2017-08-07T02:28:51.938Z,4.00
2017-08-07T02:31:19.550Z,3.95
2017-08-07T02:33:47.155Z,3.47
2017-08-07T02:36:14.761Z,3.45
2017-08-07T02:38:42.407Z,3.72
2017-08-07T02:41:10.976Z,3.70
2017-08-07T02:43:38.572Z,3.85
2017-08-07T02:46:07.125Z,3.58
2017-08-07T02:48:34.726Z,3.97
2017-08-07T02:51:02.373Z,3.33
2017-08-07T02:53:29.985Z,4.37
2017-08-07T02:55:57.600Z,4.30
2017-08-07T02:58:25.201Z,4.22
2017-08-07T03:00:52.812Z,4.50
2017-08-07T03:03:20.451Z,4.00
2017-08-07T03:05:48.060Z,3.78
2017-08-07T03:08:16.666Z,4.43
2017-08-07T03:10:44.272Z,4.30
2017-08-07T03:13:11.877Z,5.47
2017-08-07T03:15:39.524Z,5.95
2017-08-07T03:18:07.138Z,5.18
2017-08-07T03:20:34.758Z,4.90
2017-08-07T03:23:02.349Z,6.07
2017-08-07T03:25:29.953Z,6.57
2017-08-07T03:27:57.592Z,6.30
2017-08-07T03:30:25.194Z,5.72
2017-08-07T03:32:52.810Z,6.32
2017-08-07T03:35:20.421Z,5.47
2017-08-07T03:37:48.013Z,6.07
2017-08-07T03:40:15.665Z,5.57
2017-08-07T03:42:43.274Z,5.22
2017-08-07T03:45:11.833Z,6.03
2017-08-07T03:47:39.419Z,5.45
2017-08-07T03:50:07.017Z,5.65
2017-08-07T03:52:34.656Z,5.40
2017-08-07T03:55:02.243Z,5.18
2017-08-07T03:57:29.837Z,5.05
2017-08-07T03:59:57.432Z,5.32
2017-08-07T04:02:26.037Z,5.75
2017-08-07T04:04:53.688Z,5.82
2017-08-07T04:07:21.285Z,5.15
2017-08-07T04:09:49.862Z,4.90
2017-08-07T04:12:17.462Z,5.87
2017-08-07T04:14:45.061Z,5.70
2017-08-07T04:17:12.713Z,5.57
2017-08-07T04:19:40.323Z,5.57
2017-08-07T04:22:07.934Z,5.55
2017-08-07T04:24:35.529Z,5.43
2017-08-07T04:27:03.137Z,5.10
2017-08-07T04:29:30.773Z,5.65
2017-08-07T04:31:58.359Z,5.20
2017-08-07T04:34:25.943Z,5.65
2017-08-07T04:36:53.540Z,6.25
2017-08-07T04:39:21.137Z,6.70
2017-08-07T04:41:48.790Z,5.82
2017-08-07T04:44:16.399Z,5.70
2017-08-07T04:46:43.992Z,5.90
2017-08-07T04:49:11.624Z,6.45
2017-08-07T04:51:39.224Z,5.60
2017-08-07T04:54:06.857Z,6.47
2017-08-07T04:56:34.475Z,5.45
2017-08-07T04:59:03.061Z,6.12
2017-08-07T05:01:31.648Z,5.03
2017-08-07T05:03:59.253Z,5.68
2017-08-07T05:06:26.905Z,6.22
2017-08-07T05:08:54.515Z,5.75
2017-08-07T05:11:22.108Z,5.50
2017-08-07T05:13:49.695Z,5.35
2017-08-07T05:16:17.297Z,5.97
2017-08-07T05:18:44.949Z,5.10
2017-08-07T05:21:12.544Z,5.57
2017-08-07T05:23:40.154Z,5.25
2017-08-07T05:26:07.793Z,5.72
2017-08-07T05:28:35.401Z,5.37
2017-08-07T05:31:03.050Z,4.97
2017-08-07T05:33:30.648Z,5.15
2017-08-07T05:35:58.235Z,4.93
2017-08-07T05:38:25.824Z,5.37
2017-08-07T05:40:53.416Z,4.53
2017-08-07T05:43:21.060Z,4.20
2017-08-07T05:45:48.648Z,4.55
2017-08-07T05:48:16.250Z,4.60
2017-08-07T05:50:43.865Z,5.20
2017-08-07T05:53:11.457Z,4.45
2017-08-07T05:55:39.114Z,3.40
2017-08-07T05:58:06.742Z,3.60
2017-08-07T06:00:34.335Z,3.33
2017-08-07T06:03:02.919Z,3.80
2017-08-07T06:05:30.539Z,3.20
2017-08-07T06:07:59.161Z,3.08
2017-08-07T06:10:26.782Z,3.33
2017-08-07T06:12:54.381Z,3.28
2017-08-07T06:15:22.493Z,2.78
2017-08-07T06:17:50.105Z,2.62
2017-08-07T06:20:17.703Z,2.50
2017-08-07T06:22:45.304Z,2.40
2017-08-07T06:25:12.610Z,2.40
2017-08-07T06:27:40.227Z,2.37
2017-08-07T06:30:07.537Z,2.57
2017-08-07T06:32:34.863Z,2.30
2017-08-07T06:35:02.172Z,2.30
2017-08-07T06:37:29.475Z,2.67
2017-08-07T06:40:03.330Z,2.53
2017-08-07T06:42:30.684Z,2.80
2017-08-07T06:44:57.991Z,2.77
2017-08-07T06:47:26.264Z,2.70
2017-08-07T06:49:53.608Z,2.50
2017-08-07T06:52:20.923Z,2.33
2017-08-07T06:54:48.290Z,3.07
2017-08-07T06:57:15.610Z,2.30
2017-08-07T06:59:43.916Z,2.50
2017-08-07T07:02:11.351Z,2.47
2017-08-07T07:04:38.676Z,2.53
2017-08-07T07:07:06.038Z,2.83
2017-08-07T07:09:33.361Z,2.00
2017-08-07T07:12:00.686Z,2.40
2017-08-07T07:14:28.931Z,2.77
2017-08-07T07:16:56.231Z,2.60
2017-08-07T07:19:23.580Z,2.20
2017-08-07T07:21:50.888Z,2.17
2017-08-07T07:24:18.309Z,2.30
2017-08-07T07:26:46.533Z,2.63
2017-08-07T07:29:13.872Z,2.50
2017-08-07T07:31:41.228Z,2.23
2017-08-07T07:34:08.559Z,2.07
2017-08-07T07:36:35.878Z,2.37
2017-08-07T07:39:03.009Z,2.00
2017-08-07T07:41:30.357Z,2.10
2017-08-07T07:43:57.716Z,2.53
2017-08-07T07:46:25.034Z,2.47
2017-08-07T07:48:52.367Z,2.80
2017-08-07T07:51:19.667Z,2.80
2017-08-07T07:53:46.998Z,2.20
2017-08-07T07:56:14.360Z,2.33
2017-08-07T07:58:41.685Z,2.40
2017-08-07T08:01:09.021Z,2.80
2017-08-07T08:03:36.344Z,2.50
2017-08-07T08:06:03.656Z,2.63
2017-08-07T08:08:31.016Z,2.70
2017-08-07T08:10:58.323Z,2.37
2017-08-07T08:13:25.638Z,2.70
2017-08-07T08:15:52.958Z,2.63
2017-08-07T08:18:21.239Z,2.60
2017-08-07T08:20:48.605Z,2.30
2017-08-07T08:23:15.926Z,2.40
2017-08-07T08:25:43.246Z,2.57
2017-08-07T08:28:10.564Z,2.70
2017-08-07T08:30:37.872Z,3.00
2017-08-07T08:33:05.228Z,2.60
2017-08-07T08:35:32.553Z,2.93
2017-08-07T08:37:59.881Z,3.70
2017-08-07T08:40:27.197Z,3.13
2017-08-07T08:42:54.528Z,3.60
2017-08-07T08:45:21.895Z,3.70
2017-08-07T08:47:49.217Z,2.90
2017-08-07T08:50:16.546Z,3.30
2017-08-07T08:52:43.865Z,3.03
2017-08-07T08:55:11.175Z,3.07
2017-08-07T08:57:38.528Z,3.47
2017-08-07T09:00:05.879Z,3.40
2017-08-07T09:02:33.195Z,2.73
2017-08-07T09:05:00.510Z,3.10
2017-08-07T09:07:27.841Z,3.07
2017-08-07T09:09:55.208Z,3.47
2017-08-07T09:12:22.511Z,3.70
2017-08-07T09:14:49.845Z,3.83
2017-08-07T09:17:17.161Z,3.03
2017-08-07T09:19:44.490Z,3.90
2017-08-07T09:22:11.848Z,3.40
2017-08-07T09:24:39.164Z,4.00
2017-08-07T09:27:06.477Z,3.20
2017-08-07T09:29:33.805Z,3.13
2017-08-07T09:32:01.128Z,2.90
2017-08-07T09:34:28.493Z,2.60
2017-08-07T09:36:56.757Z,2.40
2017-08-07T09:39:24.068Z,3.30
2017-08-07T09:41:51.383Z,2.80
2017-08-07T09:44:19.651Z,2.53
2017-08-07T09:46:48.392Z,2.70
2017-08-07T09:49:16.188Z,2.47
2017-08-07T09:51:45.232Z,2.70
2017-08-07T09:54:12.959Z,2.30
2017-08-07T09:56:40.570Z,2.60
2017-08-07T09:59:07.929Z,2.20
2017-08-07T10:01:35.248Z,3.00
2017-08-07T10:04:03.029Z,3.00
2017-08-07T10:06:30.499Z,2.77
2017-08-07T10:08:57.808Z,2.87
2017-08-07T10:11:25.243Z,2.70
2017-08-07T10:13:53.842Z,2.73
2017-08-07T10:16:21.157Z,2.40
2017-08-07T10:18:48.474Z,3.13
2017-08-07T10:21:15.780Z,2.90
2017-08-07T10:23:43.967Z,3.20
2017-08-07T10:26:11.522Z,3.57
2017-08-07T10:28:40.654Z,2.60
2017-08-07T10:31:09.117Z,3.70
2017-08-07T10:33:36.457Z,3.00
2017-08-07T10:36:03.834Z,2.87
2017-08-07T10:38:47.694Z,2.97
2017-08-07T10:41:15.080Z,2.90
2017-08-07T10:43:42.439Z,3.63
2017-08-07T10:46:09.761Z,3.83
2017-08-07T10:48:37.101Z,3.63
2017-08-07T10:51:04.552Z,3.50
2017-08-07T10:53:31.928Z,3.10
2017-08-07T10:55:59.277Z,3.60
2017-08-07T10:58:26.602Z,3.60
2017-08-07T11:00:53.920Z,3.33
2017-08-07T11:03:22.201Z,3.37
2017-08-07T11:05:49.573Z,2.90
2017-08-07T11:08:16.906Z,3.40
2017-08-07T11:10:44.226Z,3.13
2017-08-07T11:13:11.559Z,3.10
2017-08-07T11:15:38.876Z,2.97
2017-08-07T11:18:06.234Z,3.30
2017-08-07T11:20:33.569Z,2.60
2017-08-07T11:23:00.932Z,3.00
2017-08-07T11:25:28.270Z,3.40
2017-08-07T11:27:55.770Z,3.23
2017-08-07T11:30:23.315Z,3.30
2017-08-07T11:32:50.687Z,2.97
2017-08-07T11:35:18.031Z,3.77
2017-08-07T11:37:45.358Z,3.63
2017-08-07T11:40:13.524Z,3.67
2017-08-07T11:42:42.843Z,3.77
2017-08-07T11:45:10.263Z,3.50
2017-08-07T11:47:37.624Z,4.10
2017-08-07T11:50:04.978Z,3.43
2017-08-07T11:52:32.349Z,3.80
2017-08-07T11:54:59.729Z,3.27
2017-08-07T11:57:27.181Z,3.07
2017-08-07T11:59:54.492Z,3.20
2017-08-07T12:02:21.849Z,2.53
2017-08-07T12:04:49.175Z,2.87
2017-08-07T12:07:16.531Z,2.27
2017-08-07T12:09:43.869Z,2.30
2017-08-07T12:12:11.197Z,2.20
2017-08-07T12:14:38.541Z,2.70
2017-08-07T12:17:06.732Z,2.40
2017-08-07T12:19:34.113Z,2.30
2017-08-07T12:22:01.464Z,2.20
2017-08-07T12:24:28.838Z,2.67
2017-08-07T12:26:56.336Z,1.83
2017-08-07T12:29:23.653Z,2.13
2017-08-07T12:31:52.952Z,1.97
2017-08-07T12:34:20.293Z,1.83
2017-08-07T12:36:47.614Z,1.80
2017-08-07T12:39:14.932Z,1.67
2017-08-07T12:41:42.254Z,2.00
2017-08-07T12:44:09.621Z,1.57
2017-08-07T12:46:36.948Z,1.73
2017-08-07T12:49:04.275Z,1.57
2017-08-07T12:51:32.537Z,1.40
2017-08-07T12:53:59.863Z,1.60
2017-08-07T12:56:27.181Z,1.37
2017-08-07T12:58:54.515Z,1.70
2017-08-07T13:01:22.804Z,1.50
2017-08-07T13:03:51.097Z,1.70
2017-08-07T13:06:18.425Z,1.67
2017-08-07T13:08:45.735Z,1.53
2017-08-07T13:11:13.104Z,1.60
2017-08-07T13:13:40.427Z,1.50
2017-08-07T13:16:07.741Z,1.30
2017-08-07T13:18:35.052Z,1.50
2017-08-07T13:21:02.375Z,1.33
2017-08-07T13:23:31.680Z,1.20
2017-08-07T13:25:59.006Z,1.00
2017-08-07T13:28:26.328Z,1.10
2017-08-07T13:30:53.640Z,1.37
2017-08-07T13:33:21.908Z,1.00
2017-08-07T13:35:49.277Z,1.10
2017-08-07T13:38:16.588Z,1.20
2017-08-07T13:40:43.907Z,1.20
2017-08-07T13:43:11.222Z,1.20
2017-08-07T13:45:39.497Z,0.97
2017-08-07T13:48:06.844Z,1.00
2017-08-07T13:50:34.160Z,1.37
2017-08-07T13:53:01.477Z,1.20
2017-08-07T13:55:29.726Z,1.03
2017-08-07T13:57:57.060Z,1.10
2017-08-07T14:00:24.418Z,1.00
2017-08-07T14:02:51.750Z,1.00
2017-08-07T14:05:19.063Z,1.10
2017-08-07T14:07:46.380Z,0.93
2017-08-07T14:10:13.693Z,1.30
2017-08-07T14:12:41.056Z,1.27
2017-08-07T14:15:08.382Z,0.90
2017-08-07T14:17:35.687Z,1.10
2017-08-07T14:20:02.997Z,1.30
2017-08-07T14:22:30.307Z,0.93
2017-08-07T14:24:57.656Z,1.20
2017-08-07T14:27:24.987Z,1.10
2017-08-07T14:29:52.314Z,1.40
2017-08-07T14:32:19.631Z,1.07
2017-08-07T14:34:46.956Z,0.90
2017-08-07T14:37:14.314Z,1.10
2017-08-07T14:39:41.628Z,1.07
2017-08-07T14:42:08.963Z,1.00
2017-08-07T14:44:36.293Z,1.17
2017-08-07T14:47:03.604Z,1.03
2017-08-07T14:49:30.961Z,1.10
2017-08-07T14:51:58.286Z,1.00
2017-08-07T14:54:26.595Z,1.00
2017-08-07T14:56:54.894Z,1.23
2017-08-07T14:59:22.223Z,1.30
2017-08-07T15:01:49.580Z,1.10
2017-08-07T15:04:16.919Z,0.90
2017-08-07T15:06:46.375Z,1.17
2017-08-07T15:09:13.745Z,1.00
2017-08-07T15:11:42.036Z,1.00
2017-08-07T15:14:09.402Z,0.93
2017-08-07T15:16:36.729Z,0.90
2017-08-07T15:19:04.044Z,0.90
2017-08-07T15:21:31.366Z,1.30
2017-08-07T15:23:58.693Z,1.10
2017-08-07T15:26:26.058Z,1.17
2017-08-07T15:28:53.386Z,1.00
2017-08-07T15:31:20.711Z,1.00
2017-08-07T15:33:49.003Z,2.33
2017-08-07T15:36:16.182Z,1.70
2017-08-07T15:38:43.550Z,1.47
2017-08-07T15:41:10.865Z,1.13
2017-08-07T15:43:38.180Z,1.30
2017-08-07T15:46:05.502Z,1.10
2017-08-07T15:48:33.769Z,1.30
2017-08-07T15:51:01.131Z,2.50
2017-08-07T15:53:28.442Z,1.23
2017-08-07T15:55:55.772Z,1.50
2017-08-07T15:58:23.077Z,1.53
2017-08-07T16:00:51.365Z,1.40
2017-08-07T16:03:18.721Z,1.60
2017-08-07T16:05:46.041Z,1.27
2017-08-07T16:08:13.356Z,1.40
2017-08-07T16:10:40.677Z,1.50
2017-08-07T16:13:07.992Z,1.53
2017-08-07T16:15:35.357Z,1.40
2017-08-07T16:18:02.674Z,1.50
2017-08-07T16:20:30.001Z,1.97
2017-08-07T16:22:57.330Z,1.60
2017-08-07T16:25:24.677Z,1.33
2017-08-07T16:27:52.067Z,1.40
2017-08-07T16:30:24.930Z,1.23
2017-08-07T16:32:52.301Z,1.70
2017-08-07T16:35:19.624Z,1.70
2017-08-07T16:37:46.947Z,1.50
2017-08-07T16:40:14.294Z,1.50
2017-08-07T16:42:41.636Z,1.87
2017-08-07T16:45:09.003Z,1.83
2017-08-07T16:47:36.331Z,1.90
2017-08-07T16:50:03.650Z,1.60
2017-08-07T16:52:30.965Z,1.57
2017-08-07T16:54:58.283Z,1.70
2017-08-07T16:57:25.649Z,1.70
2017-08-07T16:59:52.974Z,1.67
2017-08-07T17:02:20.316Z,1.70
2017-08-07T17:04:47.634Z,1.90
2017-08-07T17:07:14.977Z,2.20
2017-08-07T17:09:42.374Z,1.70
2017-08-07T17:12:09.692Z,1.77
2017-08-07T17:14:37.012Z,2.10
2017-08-07T17:17:04.325Z,1.70
2017-08-07T17:19:31.661Z,2.20
2017-08-07T17:21:59.020Z,2.10
2017-08-07T17:24:26.341Z,2.37
2017-08-07T17:26:53.670Z,1.97
2017-08-07T17:29:21.929Z,1.90
2017-08-07T17:31:49.249Z,2.17
2017-08-07T17:34:16.606Z,2.20
2017-08-07T17:36:43.919Z,2.20
2017-08-07T17:39:12.202Z,2.93
2017-08-07T17:41:39.520Z,2.30
2017-08-07T17:44:06.933Z,2.50
2017-08-07T17:46:34.294Z,3.00
2017-08-07T17:49:02.567Z,2.33
2017-08-07T17:51:29.871Z,2.97
2017-08-07T17:53:57.186Z,3.03
2017-08-07T17:56:24.496Z,2.53
2017-08-07T17:58:53.804Z,2.87
2017-08-07T18:01:21.112Z,2.97
2017-08-07T18:03:48.430Z,3.30
2017-08-07T18:06:15.742Z,3.70
2017-08-07T18:08:43.073Z,3.47
2017-08-07T18:11:10.433Z,2.80
2017-08-07T18:13:37.764Z,3.80
2017-08-07T18:16:05.094Z,3.50
2017-08-07T18:18:32.403Z,3.40
2017-08-07T18:20:59.717Z,3.87
2017-08-07T18:23:27.089Z,4.13
2017-08-07T18:25:54.400Z,3.50
2017-08-07T18:28:21.712Z,4.20
2017-08-07T18:30:49.034Z,3.63
2017-08-07T18:33:16.370Z,3.63
2017-08-07T18:35:43.727Z,4.33
2017-08-07T18:38:11.043Z,3.80
2017-08-07T18:40:38.381Z,3.67
2017-08-07T18:43:05.704Z,4.30
2017-08-07T18:45:34.664Z,3.47
2017-08-07T18:48:02.036Z,3.40
2017-08-07T18:50:29.368Z,3.83
2017-08-07T18:52:56.731Z,3.77
2017-08-07T18:55:24.055Z,4.47
2017-08-07T18:57:51.398Z,3.80
2017-08-07T19:00:18.775Z,3.70
2017-08-07T19:02:46.105Z,4.17
2017-08-07T19:05:13.422Z,4.20
2017-08-07T19:07:40.766Z,3.70
2017-08-07T19:10:08.075Z,4.00
2017-08-07T19:12:35.432Z,3.87
2017-08-07T19:15:03.734Z,4.13
2017-08-07T19:17:31.056Z,4.73
2017-08-07T19:19:59.243Z,4.30
2017-08-07T19:22:26.591Z,4.60
2017-08-07T19:24:53.953Z,4.30
2017-08-07T19:27:21.275Z,4.67
2017-08-07T19:29:48.606Z,4.67
2017-08-07T19:32:17.934Z,4.17
2017-08-07T19:34:45.262Z,4.10
2017-08-07T19:37:12.585Z,4.20
2017-08-07T19:39:39.955Z,3.90
2017-08-07T19:42:07.278Z,3.80
2017-08-07T19:44:35.575Z,4.10
2017-08-07T19:47:02.913Z,4.50
2017-08-07T19:49:30.645Z,4.83
2017-08-07T19:51:57.960Z,5.07
2017-08-07T19:54:25.286Z,4.73
2017-08-07T19:56:52.633Z,4.33
2017-08-07T19:59:20.009Z,4.60
2017-08-07T20:01:47.343Z,4.33
2017-08-07T20:04:14.675Z,4.77
2017-08-07T20:06:42.962Z,5.17
2017-08-07T20:09:10.285Z,5.27
2017-08-07T20:11:37.644Z,4.20
2017-08-07T20:14:04.972Z,5.47
2017-08-07T20:16:33.231Z,4.17
2017-08-07T20:19:00.551Z,4.53
2017-08-07T20:21:27.864Z,3.93
2017-08-07T20:23:55.218Z,4.30
2017-08-07T20:26:22.523Z,5.20
2017-08-07T20:28:49.828Z,4.80
2017-08-07T20:31:17.154Z,4.60
2017-08-07T20:33:45.438Z,5.03
2017-08-07T20:36:12.806Z,5.30
2017-08-07T20:38:40.152Z,5.37
2017-08-07T20:41:07.459Z,5.00
2017-08-07T20:43:34.779Z,5.97
2017-08-07T20:46:02.106Z,5.30
2017-08-07T20:48:29.465Z,5.13
2017-08-07T20:50:56.777Z,5.77
2017-08-07T20:53:24.093Z,5.30
2017-08-07T20:55:51.400Z,5.50
2017-08-07T20:58:19.688Z,5.60
2017-08-07T21:00:47.047Z,6.03
2017-08-07T21:03:14.373Z,6.60
2017-08-07T21:05:41.966Z,6.93
2017-08-07T21:08:09.091Z,6.70
2017-08-07T21:10:36.418Z,7.03
2017-08-07T21:13:03.783Z,5.80
2017-08-07T21:15:31.106Z,6.60
2017-08-07T21:17:58.718Z,6.00
2017-08-07T21:20:26.337Z,6.15
2017-08-07T21:22:53.659Z,6.23
2017-08-07T21:25:21.062Z,6.17
2017-08-07T21:27:48.445Z,6.77
2017-08-07T21:30:16.731Z,6.93
2017-08-07T21:32:44.345Z,7.40
2017-08-07T21:35:11.667Z,6.63
2017-08-07T21:37:39.044Z,6.70
2017-08-07T21:40:06.404Z,6.20
2017-08-07T21:42:33.728Z,6.17
2017-08-07T21:45:01.346Z,7.53
2017-08-07T21:47:28.681Z,6.53
2017-08-07T21:49:56.060Z,7.60
2017-08-07T21:52:23.431Z,6.70
2017-08-07T21:54:51.055Z,7.00
2017-08-07T21:57:18.700Z,7.00
2017-08-07T21:59:46.033Z,6.97
2017-08-07T22:02:13.683Z,7.28
2017-08-07T22:04:41.316Z,7.30
2017-08-07T22:07:08.928Z,7.18
2017-08-07T22:09:36.543Z,7.28
2017-08-07T22:12:03.865Z,6.47
2017-08-07T22:14:31.526Z,7.07
2017-08-07T22:16:59.141Z,6.45
2017-08-07T22:19:26.741Z,6.53
2017-08-07T22:21:54.340Z,6.90
2017-08-07T22:24:21.658Z,7.30
2017-08-07T22:26:49.308Z,7.55
2017-08-07T22:29:16.929Z,8.23
2017-08-07T22:31:44.532Z,8.60
2017-08-07T22:34:12.137Z,7.12
2017-08-07T22:36:39.452Z,8.20
2017-08-07T22:39:06.812Z,8.20
2017-08-07T22:41:34.413Z,7.90
2017-08-07T22:44:02.008Z,8.27
2017-08-07T22:46:29.334Z,8.57
2017-08-07T22:48:56.933Z,8.05
2017-08-07T22:51:24.572Z,8.63
2017-08-07T22:53:52.192Z,8.23
2017-08-07T22:56:19.796Z,8.50
2017-08-07T22:58:47.400Z,8.73
2017-08-07T23:01:15.025Z,9.02
2017-08-07T23:03:42.706Z,8.32
2017-08-07T23:06:11.424Z,9.55
2017-08-07T23:08:39.033Z,9.02
2017-08-07T23:11:06.629Z,8.55
2017-08-07T23:13:34.220Z,8.18
2017-08-07T23:16:01.856Z,8.63
2017-08-07T23:18:29.456Z,8.15
2017-08-07T23:20:57.072Z,8.40
2017-08-07T23:23:24.693Z,8.45
2017-08-07T23:25:52.303Z,8.10
2017-08-07T23:28:19.958Z,8.07
2017-08-07T23:30:48.297Z,9.25
2017-08-07T23:33:15.913Z,9.70
2017-08-07T23:35:43.531Z,10.40
2017-08-07T23:38:11.148Z,9.73
2017-08-07T23:40:38.793Z,8.07
2017-08-07T23:43:07.360Z,8.57
2017-08-07T23:45:34.965Z,9.32
2017-08-07T23:48:02.564Z,8.35
2017-08-07T23:50:30.194Z,9.73
2017-08-07T23:52:57.877Z,9.43
2017-08-07T23:55:25.487Z,8.60
2017-08-07T23:57:53.108Z,9.02
